Windsor Heights, Iowa
Current Conditions -  °F | °C
As of 12:54 PM on Friday 24 Oct 2014 (Local Time) from KDSM Reporting Station
Haze Haze  
Wind Chill: 63°   Ceiling: 600
Heat Index: 63°   Visibility: 3mi
Dew Point: 60°   Wind: 14mph
Humidity: 90%   Direction: 200°SSW
Pressure: 29.93"   Gusts: NA
Location:  41.5811°N, 93.6759°W
Report Text: KDSM 241754Z 20012KT 3SM BR OVC006 17/16 A2993 RMK AO2 SFC VIS 4 SLP134 T01720156 10178 20150 58013
Loading
Personal Weather Stations






























Interactive Weather Map
Tropical Storm Tracking
New forecast layout! Learn more

10-Day Weather Forecast

Advertisements
Track Severe Weather on mobile